sensor_id;sensor_type;location;lat;lon;timestamp;P1;durP1;ratioP1;P2;durP2;ratioP2
18526;SDS011;9393;42.158;24.748;2023-09-18T00:00:17;5.22;;;3.17;;
18526;SDS011;9393;42.158;24.748;2023-09-18T00:03:23;7.10;;;3.53;;
18526;SDS011;9393;42.158;24.748;2023-09-18T00:06:27;6.60;;;3.00;;
18526;SDS011;9393;42.158;24.748;2023-09-18T00:09:33;4.28;;;2.65;;
18526;SDS011;9393;42.158;24.748;2023-09-18T00:12:37;7.97;;;3.00;;
18526;SDS011;9393;42.158;24.748;2023-09-18T00:15:43;5.30;;;2.88;;
18526;SDS011;9393;42.158;24.748;2023-09-18T00:18:49;5.07;;;2.92;;
18526;SDS011;9393;42.158;24.748;2023-09-18T00:21:53;6.70;;;3.15;;
18526;SDS011;9393;42.158;24.748;2023-09-18T00:24:59;3.17;;;2.80;;
18526;SDS011;9393;42.158;24.748;2023-09-18T00:28:04;7.75;;;2.88;;
18526;SDS011;9393;42.158;24.748;2023-09-18T00:31:08;3.60;;;2.90;;
18526;SDS011;9393;42.158;24.748;2023-09-18T00:34:12;5.15;;;2.88;;
18526;SDS011;9393;42.158;24.748;2023-09-18T00:37:16;7.15;;;2.72;;
18526;SDS011;9393;42.158;24.748;2023-09-18T00:40:22;6.07;;;2.78;;
18526;SDS011;9393;42.158;24.748;2023-09-18T00:43:29;6.03;;;3.00;;
18526;SDS011;9393;42.158;24.748;2023-09-18T00:46:34;7.90;;;3.15;;
18526;SDS011;9393;42.158;24.748;2023-09-18T00:49:39;3.95;;;2.90;;
18526;SDS011;9393;42.158;24.748;2023-09-18T00:52:45;9.68;;;3.33;;
18526;SDS011;9393;42.158;24.748;2023-09-18T00:55:51;7.03;;;3.40;;
18526;SDS011;9393;42.158;24.748;2023-09-18T00:58:59;7.00;;;3.20;;
18526;SDS011;9393;42.158;24.748;2023-09-18T01:02:05;4.95;;;3.13;;
18526;SDS011;9393;42.158;24.748;2023-09-18T01:05:13;6.03;;;3.33;;
18526;SDS011;9393;42.158;24.748;2023-09-18T01:08:18;9.05;;;3.13;;
18526;SDS011;9393;42.158;24.748;2023-09-18T01:11:29;7.10;;;3.22;;
18526;SDS011;9393;42.158;24.748;2023-09-18T01:14:44;5.57;;;3.00;;
18526;SDS011;9393;42.158;24.748;2023-09-18T01:17:57;6.32;;;3.25;;
18526;SDS011;9393;42.158;24.748;2023-09-18T01:21:02;6.55;;;3.05;;
18526;SDS011;9393;42.158;24.748;2023-09-18T01:24:07;5.78;;;3.10;;
18526;SDS011;9393;42.158;24.748;2023-09-18T01:27:12;5.78;;;2.97;;
18526;SDS011;9393;42.158;24.748;2023-09-18T01:30:16;4.82;;;2.92;;
18526;SDS011;9393;42.158;24.748;2023-09-18T01:33:23;4.57;;;2.78;;
18526;SDS011;9393;42.158;24.748;2023-09-18T01:36:28;4.47;;;2.70;;
18526;SDS011;9393;42.158;24.748;2023-09-18T01:39:34;5.38;;;3.17;;
18526;SDS011;9393;42.158;24.748;2023-09-18T01:42:38;5.85;;;2.70;;
18526;SDS011;9393;42.158;24.748;2023-09-18T01:45:45;7.00;;;3.28;;
18526;SDS011;9393;42.158;24.748;2023-09-18T01:48:51;4.63;;;2.83;;
18526;SDS011;9393;42.158;24.748;2023-09-18T01:51:55;5.35;;;2.33;;
18526;SDS011;9393;42.158;24.748;2023-09-18T01:55:01;6.10;;;3.53;;
18526;SDS011;9393;42.158;24.748;2023-09-18T01:58:07;5.00;;;2.72;;
18526;SDS011;9393;42.158;24.748;2023-09-18T02:01:12;3.47;;;2.63;;
18526;SDS011;9393;42.158;24.748;2023-09-18T02:04:19;4.93;;;2.42;;
18526;SDS011;9393;42.158;24.748;2023-09-18T02:07:43;6.97;;;3.00;;
18526;SDS011;9393;42.158;24.748;2023-09-18T02:10:49;3.70;;;2.63;;
18526;SDS011;9393;42.158;24.748;2023-09-18T02:13:58;5.22;;;2.72;;
18526;SDS011;9393;42.158;24.748;2023-09-18T02:17:03;5.93;;;3.00;;
18526;SDS011;9393;42.158;24.748;2023-09-18T02:20:08;5.53;;;2.75;;
18526;SDS011;9393;42.158;24.748;2023-09-18T02:23:14;4.35;;;2.80;;
18526;SDS011;9393;42.158;24.748;2023-09-18T02:26:19;11.00;;;3.30;;
18526;SDS011;9393;42.158;24.748;2023-09-18T02:29:24;6.30;;;3.13;;
18526;SDS011;9393;42.158;24.748;2023-09-18T02:32:29;12.20;;;3.15;;
18526;SDS011;9393;42.158;24.748;2023-09-18T02:35:35;6.95;;;2.83;;
18526;SDS011;9393;42.158;24.748;2023-09-18T02:38:39;6.70;;;3.10;;
18526;SDS011;9393;42.158;24.748;2023-09-18T02:41:44;8.73;;;3.03;;
18526;SDS011;9393;42.158;24.748;2023-09-18T02:44:48;7.22;;;3.00;;
18526;SDS011;9393;42.158;24.748;2023-09-18T02:47:52;6.13;;;3.03;;
18526;SDS011;9393;42.158;24.748;2023-09-18T02:50:57;5.07;;;3.00;;
18526;SDS011;9393;42.158;24.748;2023-09-18T02:54:04;9.43;;;3.58;;
18526;SDS011;9393;42.158;24.748;2023-09-18T02:57:11;7.40;;;3.17;;
18526;SDS011;9393;42.158;24.748;2023-09-18T03:00:18;5.35;;;2.70;;
18526;SDS011;9393;42.158;24.748;2023-09-18T03:03:43;3.80;;;2.72;;
18526;SDS011;9393;42.158;24.748;2023-09-18T03:06:47;4.80;;;3.00;;
18526;SDS011;9393;42.158;24.748;2023-09-18T03:09:54;7.43;;;3.30;;
18526;SDS011;9393;42.158;24.748;2023-09-18T03:13:00;7.68;;;3.50;;
18526;SDS011;9393;42.158;24.748;2023-09-18T03:16:05;5.63;;;3.22;;
18526;SDS011;9393;42.158;24.748;2023-09-18T03:19:09;4.40;;;3.00;;
18526;SDS011;9393;42.158;24.748;2023-09-18T03:22:13;6.38;;;3.10;;
18526;SDS011;9393;42.158;24.748;2023-09-18T03:25:19;4.78;;;3.33;;
18526;SDS011;9393;42.158;24.748;2023-09-18T03:28:24;7.43;;;3.20;;
18526;SDS011;9393;42.158;24.748;2023-09-18T03:31:29;10.45;;;3.05;;
18526;SDS011;9393;42.158;24.748;2023-09-18T03:34:33;7.85;;;3.30;;
18526;SDS011;9393;42.158;24.748;2023-09-18T03:37:37;5.97;;;3.13;;
18526;SDS011;9393;42.158;24.748;2023-09-18T03:40:43;8.30;;;3.85;;
18526;SDS011;9393;42.158;24.748;2023-09-18T03:43:54;6.57;;;3.38;;
18526;SDS011;9393;42.158;24.748;2023-09-18T03:46:58;6.45;;;3.50;;
18526;SDS011;9393;42.158;24.748;2023-09-18T03:50:02;4.18;;;3.15;;
18526;SDS011;9393;42.158;24.748;2023-09-18T03:53:13;6.70;;;2.90;;
18526;SDS011;9393;42.158;24.748;2023-09-18T03:56:20;6.53;;;3.10;;
18526;SDS011;9393;42.158;24.748;2023-09-18T03:59:25;4.18;;;2.88;;
18526;SDS011;9393;42.158;24.748;2023-09-18T04:02:30;4.85;;;2.92;;
18526;SDS011;9393;42.158;24.748;2023-09-18T04:05:34;7.68;;;2.90;;
18526;SDS011;9393;42.158;24.748;2023-09-18T04:08:40;6.90;;;3.05;;
18526;SDS011;9393;42.158;24.748;2023-09-18T04:11:47;10.85;;;3.28;;
18526;SDS011;9393;42.158;24.748;2023-09-18T04:15:00;6.15;;;3.13;;
18526;SDS011;9393;42.158;24.748;2023-09-18T04:18:07;6.10;;;3.17;;
18526;SDS011;9393;42.158;24.748;2023-09-18T04:21:11;6.75;;;3.35;;
18526;SDS011;9393;42.158;24.748;2023-09-18T04:24:15;5.57;;;3.28;;
18526;SDS011;9393;42.158;24.748;2023-09-18T04:27:19;7.22;;;3.60;;
18526;SDS011;9393;42.158;24.748;2023-09-18T04:30:25;5.38;;;2.90;;
18526;SDS011;9393;42.158;24.748;2023-09-18T04:33:29;8.35;;;3.13;;
18526;SDS011;9393;42.158;24.748;2023-09-18T04:36:34;7.65;;;3.17;;
18526;SDS011;9393;42.158;24.748;2023-09-18T04:39:45;6.32;;;3.30;;
18526;SDS011;9393;42.158;24.748;2023-09-18T04:42:51;4.50;;;2.60;;
18526;SDS011;9393;42.158;24.748;2023-09-18T04:45:57;5.65;;;3.70;;
18526;SDS011;9393;42.158;24.748;2023-09-18T04:49:01;6.45;;;3.28;;
18526;SDS011;9393;42.158;24.748;2023-09-18T04:52:06;8.25;;;3.03;;
18526;SDS011;9393;42.158;24.748;2023-09-18T04:55:10;5.18;;;2.83;;
18526;SDS011;9393;42.158;24.748;2023-09-18T04:58:14;7.63;;;3.50;;
18526;SDS011;9393;42.158;24.748;2023-09-18T05:01:22;9.95;;;3.40;;
18526;SDS011;9393;42.158;24.748;2023-09-18T05:04:35;6.65;;;3.13;;
18526;SDS011;9393;42.158;24.748;2023-09-18T05:07:39;6.03;;;3.03;;
18526;SDS011;9393;42.158;24.748;2023-09-18T05:10:44;8.77;;;3.75;;
18526;SDS011;9393;42.158;24.748;2023-09-18T05:13:49;4.88;;;3.10;;
18526;SDS011;9393;42.158;24.748;2023-09-18T05:16:56;9.55;;;3.58;;
18526;SDS011;9393;42.158;24.748;2023-09-18T05:20:00;6.43;;;3.78;;
18526;SDS011;9393;42.158;24.748;2023-09-18T05:23:13;7.25;;;3.70;;
18526;SDS011;9393;42.158;24.748;2023-09-18T05:26:20;10.50;;;3.45;;
18526;SDS011;9393;42.158;24.748;2023-09-18T05:29:26;7.65;;;3.30;;
18526;SDS011;9393;42.158;24.748;2023-09-18T05:32:33;9.05;;;4.05;;
18526;SDS011;9393;42.158;24.748;2023-09-18T05:35:40;7.47;;;3.60;;
18526;SDS011;9393;42.158;24.748;2023-09-18T05:38:46;6.00;;;3.45;;
18526;SDS011;9393;42.158;24.748;2023-09-18T05:41:50;4.57;;;3.22;;
18526;SDS011;9393;42.158;24.748;2023-09-18T05:44:54;8.15;;;4.07;;
18526;SDS011;9393;42.158;24.748;2023-09-18T05:48:00;7.25;;;3.17;;
18526;SDS011;9393;42.158;24.748;2023-09-18T05:51:06;7.63;;;3.63;;
18526;SDS011;9393;42.158;24.748;2023-09-18T05:54:10;7.13;;;3.60;;
18526;SDS011;9393;42.158;24.748;2023-09-18T05:57:15;7.40;;;3.47;;
18526;SDS011;9393;42.158;24.748;2023-09-18T06:00:19;5.85;;;3.70;;
18526;SDS011;9393;42.158;24.748;2023-09-18T06:03:25;8.98;;;3.53;;
18526;SDS011;9393;42.158;24.748;2023-09-18T06:06:32;8.05;;;3.08;;
18526;SDS011;9393;42.158;24.748;2023-09-18T06:09:36;5.40;;;2.92;;
18526;SDS011;9393;42.158;24.748;2023-09-18T06:12:40;4.30;;;2.97;;
18526;SDS011;9393;42.158;24.748;2023-09-18T06:15:44;6.00;;;2.92;;
18526;SDS011;9393;42.158;24.748;2023-09-18T06:18:50;7.45;;;3.05;;
18526;SDS011;9393;42.158;24.748;2023-09-18T06:21:54;10.02;;;3.55;;
18526;SDS011;9393;42.158;24.748;2023-09-18T06:25:01;8.02;;;2.72;;
18526;SDS011;9393;42.158;24.748;2023-09-18T06:28:05;6.72;;;3.17;;
18526;SDS011;9393;42.158;24.748;2023-09-18T06:31:11;6.65;;;3.25;;
18526;SDS011;9393;42.158;24.748;2023-09-18T06:34:18;8.00;;;3.00;;
18526;SDS011;9393;42.158;24.748;2023-09-18T06:37:22;7.28;;;4.80;;
18526;SDS011;9393;42.158;24.748;2023-09-18T06:40:27;8.05;;;3.05;;
18526;SDS011;9393;42.158;24.748;2023-09-18T06:43:32;4.45;;;2.90;;
18526;SDS011;9393;42.158;24.748;2023-09-18T06:46:36;7.70;;;3.15;;
18526;SDS011;9393;42.158;24.748;2023-09-18T06:49:41;8.35;;;3.45;;
18526;SDS011;9393;42.158;24.748;2023-09-18T06:52:48;5.57;;;3.33;;
18526;SDS011;9393;42.158;24.748;2023-09-18T06:55:52;7.07;;;2.75;;
18526;SDS011;9393;42.158;24.748;2023-09-18T06:59:04;5.95;;;2.92;;
18526;SDS011;9393;42.158;24.748;2023-09-18T07:02:08;9.35;;;3.15;;
18526;SDS011;9393;42.158;24.748;2023-09-18T07:05:15;5.40;;;2.80;;
18526;SDS011;9393;42.158;24.748;2023-09-18T07:08:19;9.82;;;3.78;;
18526;SDS011;9393;42.158;24.748;2023-09-18T07:11:25;4.45;;;2.63;;
18526;SDS011;9393;42.158;24.748;2023-09-18T07:14:29;4.90;;;2.72;;
18526;SDS011;9393;42.158;24.748;2023-09-18T07:17:33;6.20;;;2.53;;
18526;SDS011;9393;42.158;24.748;2023-09-18T07:20:43;4.35;;;2.88;;
18526;SDS011;9393;42.158;24.748;2023-09-18T07:23:47;10.15;;;3.08;;
18526;SDS011;9393;42.158;24.748;2023-09-18T07:26:52;9.25;;;3.70;;
18526;SDS011;9393;42.158;24.748;2023-09-18T07:30:03;5.95;;;3.03;;
18526;SDS011;9393;42.158;24.748;2023-09-18T07:33:08;7.95;;;3.60;;
18526;SDS011;9393;42.158;24.748;2023-09-18T07:36:13;12.93;;;3.10;;
18526;SDS011;9393;42.158;24.748;2023-09-18T07:39:17;3.85;;;2.65;;
18526;SDS011;9393;42.158;24.748;2023-09-18T07:42:23;4.25;;;2.67;;
18526;SDS011;9393;42.158;24.748;2023-09-18T07:45:28;4.22;;;2.90;;
18526;SDS011;9393;42.158;24.748;2023-09-18T07:48:34;5.68;;;2.33;;
18526;SDS011;9393;42.158;24.748;2023-09-18T07:51:41;3.85;;;2.42;;
18526;SDS011;9393;42.158;24.748;2023-09-18T07:54:47;4.65;;;3.10;;
18526;SDS011;9393;42.158;24.748;2023-09-18T07:57:51;6.57;;;2.55;;
18526;SDS011;9393;42.158;24.748;2023-09-18T08:00:55;4.38;;;2.47;;
18526;SDS011;9393;42.158;24.748;2023-09-18T08:04:01;4.97;;;2.28;;
18526;SDS011;9393;42.158;24.748;2023-09-18T08:07:06;3.53;;;2.65;;
18526;SDS011;9393;42.158;24.748;2023-09-18T08:10:10;3.72;;;2.50;;
18526;SDS011;9393;42.158;24.748;2023-09-18T08:13:14;6.70;;;2.67;;
18526;SDS011;9393;42.158;24.748;2023-09-18T08:16:18;4.13;;;2.40;;
18526;SDS011;9393;42.158;24.748;2023-09-18T08:19:22;5.72;;;2.20;;
18526;SDS011;9393;42.158;24.748;2023-09-18T08:22:29;5.55;;;2.85;;
18526;SDS011;9393;42.158;24.748;2023-09-18T08:25:34;4.30;;;2.55;;
18526;SDS011;9393;42.158;24.748;2023-09-18T08:28:38;4.70;;;2.70;;
18526;SDS011;9393;42.158;24.748;2023-09-18T08:31:45;4.63;;;2.70;;
18526;SDS011;9393;42.158;24.748;2023-09-18T08:34:49;6.65;;;2.70;;
18526;SDS011;9393;42.158;24.748;2023-09-18T08:37:55;4.53;;;2.33;;
18526;SDS011;9393;42.158;24.748;2023-09-18T08:40:59;2.85;;;2.28;;
18526;SDS011;9393;42.158;24.748;2023-09-18T08:44:04;5.32;;;2.60;;
18526;SDS011;9393;42.158;24.748;2023-09-18T08:47:12;5.07;;;2.67;;
18526;SDS011;9393;42.158;24.748;2023-09-18T08:50:18;4.60;;;2.70;;
18526;SDS011;9393;42.158;24.748;2023-09-18T08:53:24;5.45;;;2.80;;
18526;SDS011;9393;42.158;24.748;2023-09-18T08:56:29;6.82;;;2.92;;
18526;SDS011;9393;42.158;24.748;2023-09-18T08:59:35;5.22;;;2.58;;
18526;SDS011;9393;42.158;24.748;2023-09-18T09:02:39;3.35;;;2.45;;
18526;SDS011;9393;42.158;24.748;2023-09-18T09:05:43;6.72;;;2.90;;
18526;SDS011;9393;42.158;24.748;2023-09-18T09:08:49;5.68;;;2.92;;
18526;SDS011;9393;42.158;24.748;2023-09-18T09:11:54;4.25;;;2.40;;
18526;SDS011;9393;42.158;24.748;2023-09-18T09:15:02;5.72;;;2.40;;
18526;SDS011;9393;42.158;24.748;2023-09-18T09:18:07;5.78;;;2.45;;
18526;SDS011;9393;42.158;24.748;2023-09-18T09:21:11;4.55;;;2.55;;
18526;SDS011;9393;42.158;24.748;2023-09-18T09:24:17;4.35;;;2.50;;
18526;SDS011;9393;42.158;24.748;2023-09-18T09:27:42;4.35;;;2.47;;
18526;SDS011;9393;42.158;24.748;2023-09-18T09:30:46;6.38;;;2.70;;
18526;SDS011;9393;42.158;24.748;2023-09-18T09:33:50;5.25;;;2.70;;
18526;SDS011;9393;42.158;24.748;2023-09-18T09:36:56;8.25;;;3.33;;
18526;SDS011;9393;42.158;24.748;2023-09-18T09:40:05;5.65;;;2.67;;
18526;SDS011;9393;42.158;24.748;2023-09-18T09:43:12;6.18;;;3.00;;
18526;SDS011;9393;42.158;24.748;2023-09-18T09:46:17;3.53;;;2.53;;
18526;SDS011;9393;42.158;24.748;2023-09-18T09:49:23;7.03;;;2.72;;
18526;SDS011;9393;42.158;24.748;2023-09-18T09:52:30;6.05;;;2.47;;
18526;SDS011;9393;42.158;24.748;2023-09-18T09:55:38;3.92;;;2.28;;
18526;SDS011;9393;42.158;24.748;2023-09-18T09:58:42;4.50;;;2.70;;
18526;SDS011;9393;42.158;24.748;2023-09-18T10:01:47;6.38;;;2.83;;
18526;SDS011;9393;42.158;24.748;2023-09-18T10:04:52;6.57;;;2.60;;
18526;SDS011;9393;42.158;24.748;2023-09-18T10:07:59;12.20;;;3.33;;
18526;SDS011;9393;42.158;24.748;2023-09-18T10:11:11;6.43;;;3.30;;
18526;SDS011;9393;42.158;24.748;2023-09-18T10:14:20;5.43;;;2.70;;
18526;SDS011;9393;42.158;24.748;2023-09-18T10:17:44;3.70;;;2.47;;
18526;SDS011;9393;42.158;24.748;2023-09-18T10:20:51;6.45;;;2.92;;
18526;SDS011;9393;42.158;24.748;2023-09-18T10:24:02;6.43;;;3.05;;
18526;SDS011;9393;42.158;24.748;2023-09-18T10:27:15;3.88;;;2.65;;
18526;SDS011;9393;42.158;24.748;2023-09-18T10:30:23;7.38;;;2.60;;
18526;SDS011;9393;42.158;24.748;2023-09-18T10:33:28;4.60;;;2.88;;
18526;SDS011;9393;42.158;24.748;2023-09-18T10:36:34;8.23;;;3.00;;
18526;SDS011;9393;42.158;24.748;2023-09-18T10:39:39;7.68;;;2.72;;
18526;SDS011;9393;42.158;24.748;2023-09-18T10:42:49;4.70;;;2.42;;
18526;SDS011;9393;42.158;24.748;2023-09-18T10:45:56;7.68;;;2.35;;
18526;SDS011;9393;42.158;24.748;2023-09-18T10:49:00;3.33;;;2.50;;
18526;SDS011;9393;42.158;24.748;2023-09-18T10:52:10;6.45;;;2.63;;
18526;SDS011;9393;42.158;24.748;2023-09-18T10:55:14;2.83;;;2.42;;
18526;SDS011;9393;42.158;24.748;2023-09-18T10:58:24;3.80;;;2.67;;
18526;SDS011;9393;42.158;24.748;2023-09-18T11:01:29;6.35;;;2.55;;
18526;SDS011;9393;42.158;24.748;2023-09-18T11:04:34;3.75;;;2.47;;
18526;SDS011;9393;42.158;24.748;2023-09-18T11:07:38;9.50;;;2.65;;
18526;SDS011;9393;42.158;24.748;2023-09-18T11:10:57;3.17;;;2.47;;
18526;SDS011;9393;42.158;24.748;2023-09-18T11:14:10;4.45;;;2.30;;
18526;SDS011;9393;42.158;24.748;2023-09-18T11:17:31;6.28;;;2.88;;
18526;SDS011;9393;42.158;24.748;2023-09-18T11:20:37;7.18;;;2.35;;
18526;SDS011;9393;42.158;24.748;2023-09-18T11:23:42;5.53;;;2.22;;
18526;SDS011;9393;42.158;24.748;2023-09-18T11:26:47;3.28;;;2.47;;
18526;SDS011;9393;42.158;24.748;2023-09-18T11:29:56;3.70;;;2.38;;
18526;SDS011;9393;42.158;24.748;2023-09-18T11:33:04;4.20;;;2.45;;
18526;SDS011;9393;42.158;24.748;2023-09-18T11:36:12;4.97;;;2.20;;
18526;SDS011;9393;42.158;24.748;2023-09-18T11:39:33;3.72;;;2.45;;
18526;SDS011;9393;42.158;24.748;2023-09-18T11:42:39;6.00;;;2.30;;
18526;SDS011;9393;42.158;24.748;2023-09-18T11:46:29;2.65;;;2.00;;
18526;SDS011;9393;42.158;24.748;2023-09-18T11:49:33;4.93;;;2.13;;
18526;SDS011;9393;42.158;24.748;2023-09-18T11:52:38;4.85;;;2.40;;
18526;SDS011;9393;42.158;24.748;2023-09-18T11:55:43;2.85;;;2.30;;
18526;SDS011;9393;42.158;24.748;2023-09-18T11:58:50;6.03;;;2.22;;
18526;SDS011;9393;42.158;24.748;2023-09-18T12:01:58;4.63;;;2.40;;
18526;SDS011;9393;42.158;24.748;2023-09-18T12:05:09;5.13;;;2.38;;
18526;SDS011;9393;42.158;24.748;2023-09-18T12:08:14;2.75;;;2.17;;
18526;SDS011;9393;42.158;24.748;2023-09-18T12:11:20;3.22;;;2.13;;
18526;SDS011;9393;42.158;24.748;2023-09-18T12:14:25;4.05;;;2.28;;
18526;SDS011;9393;42.158;24.748;2023-09-18T12:17:30;4.25;;;2.50;;
18526;SDS011;9393;42.158;24.748;2023-09-18T12:20:35;5.65;;;2.60;;
18526;SDS011;9393;42.158;24.748;2023-09-18T12:23:43;5.32;;;2.28;;
18526;SDS011;9393;42.158;24.748;2023-09-18T12:26:48;4.70;;;2.75;;
18526;SDS011;9393;42.158;24.748;2023-09-18T12:29:52;2.83;;;2.05;;
18526;SDS011;9393;42.158;24.748;2023-09-18T12:33:00;5.20;;;2.30;;
18526;SDS011;9393;42.158;24.748;2023-09-18T12:36:06;3.90;;;2.10;;
18526;SDS011;9393;42.158;24.748;2023-09-18T12:39:11;4.82;;;2.63;;
18526;SDS011;9393;42.158;24.748;2023-09-18T12:42:18;2.70;;;1.92;;
18526;SDS011;9393;42.158;24.748;2023-09-18T12:45:22;3.90;;;2.40;;
18526;SDS011;9393;42.158;24.748;2023-09-18T12:48:29;3.72;;;2.25;;
18526;SDS011;9393;42.158;24.748;2023-09-18T12:51:33;4.35;;;2.33;;
18526;SDS011;9393;42.158;24.748;2023-09-18T12:54:38;2.83;;;1.98;;
18526;SDS011;9393;42.158;24.748;2023-09-18T12:57:42;4.35;;;2.15;;
18526;SDS011;9393;42.158;24.748;2023-09-18T13:00:47;3.70;;;2.35;;
18526;SDS011;9393;42.158;24.748;2023-09-18T13:03:54;4.38;;;2.30;;
18526;SDS011;9393;42.158;24.748;2023-09-18T13:07:09;5.22;;;2.53;;
18526;SDS011;9393;42.158;24.748;2023-09-18T13:10:14;7.50;;;2.67;;
18526;SDS011;9393;42.158;24.748;2023-09-18T13:13:18;3.70;;;2.72;;
18526;SDS011;9393;42.158;24.748;2023-09-18T13:16:23;3.40;;;2.22;;
18526;SDS011;9393;42.158;24.748;2023-09-18T13:19:33;5.35;;;2.97;;
18526;SDS011;9393;42.158;24.748;2023-09-18T13:22:37;4.25;;;2.40;;
18526;SDS011;9393;42.158;24.748;2023-09-18T13:25:42;2.88;;;2.33;;
18526;SDS011;9393;42.158;24.748;2023-09-18T13:28:46;4.32;;;2.88;;
18526;SDS011;9393;42.158;24.748;2023-09-18T13:31:50;4.18;;;2.55;;
18526;SDS011;9393;42.158;24.748;2023-09-18T13:34:56;4.22;;;2.22;;
18526;SDS011;9393;42.158;24.748;2023-09-18T13:38:00;4.70;;;2.60;;
18526;SDS011;9393;42.158;24.748;2023-09-18T13:41:04;2.90;;;2.00;;
18526;SDS011;9393;42.158;24.748;2023-09-18T13:44:08;4.82;;;2.70;;
18526;SDS011;9393;42.158;24.748;2023-09-18T13:47:12;3.67;;;2.53;;
18526;SDS011;9393;42.158;24.748;2023-09-18T13:50:17;3.03;;;2.30;;
18526;SDS011;9393;42.158;24.748;2023-09-18T13:53:21;2.75;;;2.28;;
18526;SDS011;9393;42.158;24.748;2023-09-18T13:56:28;4.32;;;2.75;;
18526;SDS011;9393;42.158;24.748;2023-09-18T13:59:32;5.70;;;2.45;;
18526;SDS011;9393;42.158;24.748;2023-09-18T14:02:36;8.65;;;3.25;;
18526;SDS011;9393;42.158;24.748;2023-09-18T14:05:42;6.38;;;2.63;;
18526;SDS011;9393;42.158;24.748;2023-09-18T14:08:46;7.55;;;2.42;;
18526;SDS011;9393;42.158;24.748;2023-09-18T14:11:50;4.60;;;2.75;;
18526;SDS011;9393;42.158;24.748;2023-09-18T14:14:54;3.88;;;2.60;;
18526;SDS011;9393;42.158;24.748;2023-09-18T14:17:59;4.10;;;3.05;;
18526;SDS011;9393;42.158;24.748;2023-09-18T14:21:04;8.63;;;2.28;;
18526;SDS011;9393;42.158;24.748;2023-09-18T14:24:09;3.47;;;2.50;;
18526;SDS011;9393;42.158;24.748;2023-09-18T14:27:13;4.38;;;2.45;;
18526;SDS011;9393;42.158;24.748;2023-09-18T14:30:17;3.20;;;2.60;;
18526;SDS011;9393;42.158;24.748;2023-09-18T14:33:21;3.97;;;2.40;;
18526;SDS011;9393;42.158;24.748;2023-09-18T14:36:27;4.78;;;2.70;;
18526;SDS011;9393;42.158;24.748;2023-09-18T14:39:31;6.07;;;3.13;;
18526;SDS011;9393;42.158;24.748;2023-09-18T14:42:35;3.22;;;2.75;;
18526;SDS011;9393;42.158;24.748;2023-09-18T14:45:39;3.10;;;2.72;;
18526;SDS011;9393;42.158;24.748;2023-09-18T14:48:43;4.60;;;2.33;;
18526;SDS011;9393;42.158;24.748;2023-09-18T14:51:49;3.47;;;2.90;;
18526;SDS011;9393;42.158;24.748;2023-09-18T14:54:55;6.03;;;3.00;;
18526;SDS011;9393;42.158;24.748;2023-09-18T14:57:59;3.85;;;2.80;;
18526;SDS011;9393;42.158;24.748;2023-09-18T15:01:05;6.70;;;3.15;;
18526;SDS011;9393;42.158;24.748;2023-09-18T15:04:10;4.22;;;2.95;;
18526;SDS011;9393;42.158;24.748;2023-09-18T15:07:15;7.57;;;2.85;;
18526;SDS011;9393;42.158;24.748;2023-09-18T15:10:20;3.60;;;2.78;;
18526;SDS011;9393;42.158;24.748;2023-09-18T15:13:24;3.28;;;2.75;;
18526;SDS011;9393;42.158;24.748;2023-09-18T15:16:28;5.93;;;3.33;;
18526;SDS011;9393;42.158;24.748;2023-09-18T15:19:32;5.97;;;2.90;;
18526;SDS011;9393;42.158;24.748;2023-09-18T15:22:38;4.22;;;3.17;;
18526;SDS011;9393;42.158;24.748;2023-09-18T15:25:42;4.05;;;3.33;;
18526;SDS011;9393;42.158;24.748;2023-09-18T15:28:46;8.52;;;3.20;;
18526;SDS011;9393;42.158;24.748;2023-09-18T15:31:50;5.22;;;3.30;;
18526;SDS011;9393;42.158;24.748;2023-09-18T15:34:55;5.30;;;3.40;;
18526;SDS011;9393;42.158;24.748;2023-09-18T15:38:00;4.07;;;3.20;;
18526;SDS011;9393;42.158;24.748;2023-09-18T15:41:05;4.40;;;3.25;;
18526;SDS011;9393;42.158;24.748;2023-09-18T15:44:09;7.32;;;3.83;;
18526;SDS011;9393;42.158;24.748;2023-09-18T15:47:16;7.13;;;3.63;;
18526;SDS011;9393;42.158;24.748;2023-09-18T15:50:20;5.00;;;3.60;;
18526;SDS011;9393;42.158;24.748;2023-09-18T15:53:25;4.15;;;3.33;;
18526;SDS011;9393;42.158;24.748;2023-09-18T15:56:29;5.68;;;3.80;;
18526;SDS011;9393;42.158;24.748;2023-09-18T15:59:35;5.88;;;3.35;;
18526;SDS011;9393;42.158;24.748;2023-09-18T16:02:39;8.38;;;4.05;;
18526;SDS011;9393;42.158;24.748;2023-09-18T16:05:44;5.68;;;3.83;;
18526;SDS011;9393;42.158;24.748;2023-09-18T16:08:57;7.20;;;3.47;;
18526;SDS011;9393;42.158;24.748;2023-09-18T16:12:03;5.78;;;3.70;;
18526;SDS011;9393;42.158;24.748;2023-09-18T16:15:09;5.40;;;4.10;;
18526;SDS011;9393;42.158;24.748;2023-09-18T16:18:13;6.32;;;3.88;;
18526;SDS011;9393;42.158;24.748;2023-09-18T16:21:17;10.70;;;4.43;;
18526;SDS011;9393;42.158;24.748;2023-09-18T16:24:24;8.20;;;4.00;;
18526;SDS011;9393;42.158;24.748;2023-09-18T16:27:28;9.38;;;3.95;;
18526;SDS011;9393;42.158;24.748;2023-09-18T16:30:32;5.95;;;3.92;;
18526;SDS011;9393;42.158;24.748;2023-09-18T16:33:36;6.28;;;4.30;;
18526;SDS011;9393;42.158;24.748;2023-09-18T16:36:43;8.45;;;4.65;;
18526;SDS011;9393;42.158;24.748;2023-09-18T16:39:49;9.95;;;4.75;;
18526;SDS011;9393;42.158;24.748;2023-09-18T16:42:52;9.98;;;4.30;;
18526;SDS011;9393;42.158;24.748;2023-09-18T16:45:56;11.55;;;4.68;;
18526;SDS011;9393;42.158;24.748;2023-09-18T16:49:00;8.98;;;4.30;;
18526;SDS011;9393;42.158;24.748;2023-09-18T16:52:06;7.68;;;3.75;;
18526;SDS011;9393;42.158;24.748;2023-09-18T16:55:11;7.97;;;4.28;;
18526;SDS011;9393;42.158;24.748;2023-09-18T16:58:15;6.45;;;4.65;;
18526;SDS011;9393;42.158;24.748;2023-09-18T17:01:19;7.22;;;3.97;;
18526;SDS011;9393;42.158;24.748;2023-09-18T17:04:24;5.53;;;3.60;;
18526;SDS011;9393;42.158;24.748;2023-09-18T17:07:27;11.15;;;4.50;;
18526;SDS011;9393;42.158;24.748;2023-09-18T17:10:35;9.48;;;5.00;;
18526;SDS011;9393;42.158;24.748;2023-09-18T17:13:38;5.65;;;4.07;;
18526;SDS011;9393;42.158;24.748;2023-09-18T17:16:42;7.80;;;4.95;;
18526;SDS011;9393;42.158;24.748;2023-09-18T17:19:46;8.93;;;5.63;;
18526;SDS011;9393;42.158;24.748;2023-09-18T17:22:51;9.43;;;4.55;;
18526;SDS011;9393;42.158;24.748;2023-09-18T17:25:56;7.70;;;4.50;;
18526;SDS011;9393;42.158;24.748;2023-09-18T17:29:06;9.88;;;4.53;;
18526;SDS011;9393;42.158;24.748;2023-09-18T17:32:10;8.68;;;4.32;;
18526;SDS011;9393;42.158;24.748;2023-09-18T17:35:14;10.23;;;4.65;;
18526;SDS011;9393;42.158;24.748;2023-09-18T17:38:19;7.55;;;4.32;;
18526;SDS011;9393;42.158;24.748;2023-09-18T17:41:24;8.75;;;5.07;;
18526;SDS011;9393;42.158;24.748;2023-09-18T17:44:29;7.80;;;5.05;;
18526;SDS011;9393;42.158;24.748;2023-09-18T17:47:33;7.25;;;4.30;;
18526;SDS011;9393;42.158;24.748;2023-09-18T17:50:38;7.25;;;4.47;;
18526;SDS011;9393;42.158;24.748;2023-09-18T17:53:42;10.20;;;4.07;;
18526;SDS011;9393;42.158;24.748;2023-09-18T17:56:47;8.32;;;4.40;;
18526;SDS011;9393;42.158;24.748;2023-09-18T17:59:51;8.52;;;4.88;;
18526;SDS011;9393;42.158;24.748;2023-09-18T18:02:57;8.35;;;4.82;;
18526;SDS011;9393;42.158;24.748;2023-09-18T18:06:01;8.30;;;5.03;;
18526;SDS011;9393;42.158;24.748;2023-09-18T18:09:11;7.47;;;4.95;;
18526;SDS011;9393;42.158;24.748;2023-09-18T18:12:17;7.13;;;4.40;;
18526;SDS011;9393;42.158;24.748;2023-09-18T18:15:22;8.65;;;4.57;;
18526;SDS011;9393;42.158;24.748;2023-09-18T18:18:25;7.72;;;4.28;;
18526;SDS011;9393;42.158;24.748;2023-09-18T18:21:30;7.25;;;4.10;;
18526;SDS011;9393;42.158;24.748;2023-09-18T18:24:35;7.45;;;4.30;;
18526;SDS011;9393;42.158;24.748;2023-09-18T18:27:40;7.57;;;4.30;;
18526;SDS011;9393;42.158;24.748;2023-09-18T18:30:47;9.15;;;4.45;;
18526;SDS011;9393;42.158;24.748;2023-09-18T18:33:52;8.35;;;4.15;;
18526;SDS011;9393;42.158;24.748;2023-09-18T18:36:56;7.80;;;4.20;;
18526;SDS011;9393;42.158;24.748;2023-09-18T18:40:01;7.80;;;4.38;;